sensor_id;sensor_type;location;lat;lon;timestamp;P1;durP1;ratioP1;P2;durP2;ratioP2
25525;SDS011;13424;48.424;11.258;2024-03-23T00:53:39;6.65;;;5.20;;
25525;SDS011;13424;48.424;11.258;2024-03-23T00:56:05;9.20;;;4.80;;
25525;SDS011;13424;48.424;11.258;2024-03-23T00:58:31;6.43;;;5.28;;
25525;SDS011;13424;48.424;11.258;2024-03-23T01:00:57;9.48;;;5.70;;
25525;SDS011;13424;48.424;11.258;2024-03-23T01:03:23;8.68;;;5.13;;
25525;SDS011;13424;48.424;11.258;2024-03-23T01:05:49;6.53;;;5.15;;
25525;SDS011;13424;48.424;11.258;2024-03-23T01:08:16;8.48;;;5.65;;
25525;SDS011;13424;48.424;11.258;2024-03-23T01:10:42;5.85;;;5.10;;
25525;SDS011;13424;48.424;11.258;2024-03-23T01:13:08;5.30;;;4.80;;
25525;SDS011;13424;48.424;11.258;2024-03-23T01:15:34;7.82;;;4.93;;
25525;SDS011;13424;48.424;11.258;2024-03-23T01:18:00;9.15;;;5.65;;
25525;SDS011;13424;48.424;11.258;2024-03-23T01:20:26;7.32;;;5.63;;
25525;SDS011;13424;48.424;11.258;2024-03-23T01:22:52;7.65;;;5.10;;
25525;SDS011;13424;48.424;11.258;2024-03-23T01:25:19;5.90;;;5.30;;
25525;SDS011;13424;48.424;11.258;2024-03-23T01:27:44;9.77;;;5.30;;
25525;SDS011;13424;48.424;11.258;2024-03-23T01:30:11;8.38;;;4.70;;
25525;SDS011;13424;48.424;11.258;2024-03-23T01:32:39;8.13;;;5.07;;
25525;SDS011;13424;48.424;11.258;2024-03-23T01:35:05;5.60;;;4.90;;
25525;SDS011;13424;48.424;11.258;2024-03-23T01:37:33;7.20;;;5.05;;
25525;SDS011;13424;48.424;11.258;2024-03-23T01:40:00;6.93;;;4.90;;
25525;SDS011;13424;48.424;11.258;2024-03-23T01:42:25;7.05;;;4.95;;
25525;SDS011;13424;48.424;11.258;2024-03-23T01:44:51;6.00;;;3.70;;
25525;SDS011;13424;48.424;11.258;2024-03-23T01:47:17;6.40;;;4.38;;
25525;SDS011;13424;48.424;11.258;2024-03-23T01:49:43;5.50;;;4.63;;
25525;SDS011;13424;48.424;11.258;2024-03-23T01:52:09;5.32;;;4.00;;
25525;SDS011;13424;48.424;11.258;2024-03-23T01:54:36;5.93;;;5.10;;
25525;SDS011;13424;48.424;11.258;2024-03-23T01:57:03;5.85;;;4.63;;
25525;SDS011;13424;48.424;11.258;2024-03-23T01:59:29;6.05;;;4.43;;
25525;SDS011;13424;48.424;11.258;2024-03-23T02:01:55;5.97;;;4.47;;
25525;SDS011;13424;48.424;11.258;2024-03-23T02:04:24;6.15;;;5.50;;
25525;SDS011;13424;48.424;11.258;2024-03-23T02:06:51;6.53;;;4.95;;
25525;SDS011;13424;48.424;11.258;2024-03-23T02:09:17;7.68;;;4.45;;
25525;SDS011;13424;48.424;11.258;2024-03-23T02:11:43;6.00;;;4.05;;
25525;SDS011;13424;48.424;11.258;2024-03-23T02:14:09;7.63;;;4.80;;
25525;SDS011;13424;48.424;11.258;2024-03-23T02:16:35;6.43;;;4.90;;
25525;SDS011;13424;48.424;11.258;2024-03-23T02:19:01;5.18;;;4.57;;
25525;SDS011;13424;48.424;11.258;2024-03-23T02:21:27;6.43;;;4.60;;
25525;SDS011;13424;48.424;11.258;2024-03-23T02:23:53;7.50;;;5.10;;
25525;SDS011;13424;48.424;11.258;2024-03-23T02:26:19;5.72;;;4.30;;
25525;SDS011;13424;48.424;11.258;2024-03-23T02:28:45;7.38;;;4.53;;
25525;SDS011;13424;48.424;11.258;2024-03-23T02:31:12;5.70;;;4.38;;
25525;SDS011;13424;48.424;11.258;2024-03-23T02:33:38;5.15;;;4.65;;
25525;SDS011;13424;48.424;11.258;2024-03-23T02:36:04;5.43;;;4.50;;
25525;SDS011;13424;48.424;11.258;2024-03-23T02:38:31;7.07;;;4.38;;
25525;SDS011;13424;48.424;11.258;2024-03-23T02:41:04;5.25;;;4.25;;
25525;SDS011;13424;48.424;11.258;2024-03-23T02:43:30;5.18;;;4.18;;
25525;SDS011;13424;48.424;11.258;2024-03-23T02:45:57;5.53;;;4.40;;
25525;SDS011;13424;48.424;11.258;2024-03-23T02:48:23;6.05;;;4.30;;
25525;SDS011;13424;48.424;11.258;2024-03-23T02:50:49;4.57;;;3.72;;
25525;SDS011;13424;48.424;11.258;2024-03-23T02:53:16;4.93;;;4.45;;
25525;SDS011;13424;48.424;11.258;2024-03-23T02:55:42;6.70;;;4.72;;
25525;SDS011;13424;48.424;11.258;2024-03-23T02:58:08;7.43;;;4.45;;
25525;SDS011;13424;48.424;11.258;2024-03-23T03:00:34;5.90;;;4.57;;
25525;SDS011;13424;48.424;11.258;2024-03-23T03:03:00;5.05;;;4.53;;
25525;SDS011;13424;48.424;11.258;2024-03-23T03:05:26;6.28;;;4.15;;
25525;SDS011;13424;48.424;11.258;2024-03-23T03:07:52;4.75;;;4.25;;
25525;SDS011;13424;48.424;11.258;2024-03-23T03:10:18;6.80;;;4.65;;
25525;SDS011;13424;48.424;11.258;2024-03-23T03:12:44;7.72;;;5.30;;
25525;SDS011;13424;48.424;11.258;2024-03-23T03:15:12;5.07;;;4.07;;
25525;SDS011;13424;48.424;11.258;2024-03-23T03:17:38;5.72;;;4.47;;
25525;SDS011;13424;48.424;11.258;2024-03-23T03:20:05;7.05;;;4.07;;
25525;SDS011;13424;48.424;11.258;2024-03-23T03:22:31;5.03;;;4.50;;
25525;SDS011;13424;48.424;11.258;2024-03-23T03:24:57;6.78;;;4.43;;
25525;SDS011;13424;48.424;11.258;2024-03-23T03:27:25;5.30;;;4.68;;
25525;SDS011;13424;48.424;11.258;2024-03-23T03:29:51;6.13;;;4.63;;
25525;SDS011;13424;48.424;11.258;2024-03-23T03:32:17;7.63;;;4.57;;
25525;SDS011;13424;48.424;11.258;2024-03-23T03:34:43;4.82;;;4.05;;
25525;SDS011;13424;48.424;11.258;2024-03-23T03:37:09;7.13;;;4.85;;
25525;SDS011;13424;48.424;11.258;2024-03-23T03:39:35;4.32;;;3.88;;
25525;SDS011;13424;48.424;11.258;2024-03-23T03:42:02;9.73;;;4.68;;
25525;SDS011;13424;48.424;11.258;2024-03-23T03:44:31;5.93;;;4.57;;
25525;SDS011;13424;48.424;11.258;2024-03-23T03:46:57;5.63;;;4.55;;
25525;SDS011;13424;48.424;11.258;2024-03-23T03:49:23;7.32;;;4.25;;
25525;SDS011;13424;48.424;11.258;2024-03-23T03:51:50;8.00;;;3.95;;
25525;SDS011;13424;48.424;11.258;2024-03-23T03:54:16;11.77;;;4.88;;
25525;SDS011;13424;48.424;11.258;2024-03-23T03:56:42;7.50;;;4.38;;
25525;SDS011;13424;48.424;11.258;2024-03-23T03:59:08;6.97;;;4.28;;
25525;SDS011;13424;48.424;11.258;2024-03-23T04:01:34;6.97;;;4.53;;
25525;SDS011;13424;48.424;11.258;2024-03-23T04:04:01;7.32;;;4.25;;
25525;SDS011;13424;48.424;11.258;2024-03-23T04:06:27;4.10;;;3.70;;
25525;SDS011;13424;48.424;11.258;2024-03-23T04:08:52;5.78;;;4.05;;
25525;SDS011;13424;48.424;11.258;2024-03-23T04:11:19;7.60;;;4.32;;
25525;SDS011;13424;48.424;11.258;2024-03-23T04:13:45;6.75;;;4.60;;
25525;SDS011;13424;48.424;11.258;2024-03-23T04:16:11;6.22;;;3.80;;
25525;SDS011;13424;48.424;11.258;2024-03-23T04:18:37;4.60;;;4.10;;
25525;SDS011;13424;48.424;11.258;2024-03-23T04:21:03;5.47;;;4.32;;
25525;SDS011;13424;48.424;11.258;2024-03-23T04:23:29;5.05;;;3.85;;
25525;SDS011;13424;48.424;11.258;2024-03-23T04:25:55;6.57;;;3.30;;
25525;SDS011;13424;48.424;11.258;2024-03-23T04:28:21;4.40;;;3.40;;
25525;SDS011;13424;48.424;11.258;2024-03-23T04:30:47;8.38;;;3.72;;
25525;SDS011;13424;48.424;11.258;2024-03-23T04:33:13;5.65;;;3.95;;
25525;SDS011;13424;48.424;11.258;2024-03-23T04:35:39;4.72;;;3.47;;
25525;SDS011;13424;48.424;11.258;2024-03-23T04:38:05;4.93;;;3.70;;
25525;SDS011;13424;48.424;11.258;2024-03-23T04:40:31;5.22;;;3.65;;
25525;SDS011;13424;48.424;11.258;2024-03-23T04:42:58;6.05;;;3.92;;
25525;SDS011;13424;48.424;11.258;2024-03-23T04:45:24;6.90;;;3.85;;
25525;SDS011;13424;48.424;11.258;2024-03-23T04:47:50;5.55;;;3.55;;
25525;SDS011;13424;48.424;11.258;2024-03-23T04:50:16;5.63;;;3.75;;
25525;SDS011;13424;48.424;11.258;2024-03-23T04:52:42;5.10;;;3.90;;
25525;SDS011;13424;48.424;11.258;2024-03-23T04:55:08;4.45;;;3.63;;
25525;SDS011;13424;48.424;11.258;2024-03-23T04:57:34;6.90;;;4.53;;
25525;SDS011;13424;48.424;11.258;2024-03-23T05:00:01;6.80;;;3.67;;
25525;SDS011;13424;48.424;11.258;2024-03-23T05:02:27;4.85;;;4.05;;
25525;SDS011;13424;48.424;11.258;2024-03-23T05:04:53;5.03;;;3.53;;
25525;SDS011;13424;48.424;11.258;2024-03-23T05:07:20;4.68;;;3.70;;
25525;SDS011;13424;48.424;11.258;2024-03-23T05:09:45;4.70;;;3.40;;
25525;SDS011;13424;48.424;11.258;2024-03-23T05:12:14;5.88;;;3.45;;
25525;SDS011;13424;48.424;11.258;2024-03-23T05:14:40;5.88;;;3.95;;
25525;SDS011;13424;48.424;11.258;2024-03-23T05:17:06;6.32;;;3.40;;
25525;SDS011;13424;48.424;11.258;2024-03-23T05:19:32;5.10;;;3.95;;
25525;SDS011;13424;48.424;11.258;2024-03-23T05:21:58;5.75;;;3.25;;
25525;SDS011;13424;48.424;11.258;2024-03-23T05:24:24;5.25;;;3.80;;
25525;SDS011;13424;48.424;11.258;2024-03-23T05:26:50;3.78;;;3.22;;
25525;SDS011;13424;48.424;11.258;2024-03-23T05:29:16;5.15;;;3.42;;
25525;SDS011;13424;48.424;11.258;2024-03-23T05:31:42;6.22;;;4.97;;
25525;SDS011;13424;48.424;11.258;2024-03-23T05:34:09;4.63;;;3.80;;
25525;SDS011;13424;48.424;11.258;2024-03-23T05:36:35;6.93;;;3.85;;
25525;SDS011;13424;48.424;11.258;2024-03-23T05:39:01;4.75;;;3.78;;
25525;SDS011;13424;48.424;11.258;2024-03-23T05:41:27;4.00;;;3.60;;
25525;SDS011;13424;48.424;11.258;2024-03-23T05:43:53;5.18;;;3.58;;
25525;SDS011;13424;48.424;11.258;2024-03-23T05:46:19;5.57;;;3.60;;
25525;SDS011;13424;48.424;11.258;2024-03-23T05:48:45;6.32;;;3.75;;
25525;SDS011;13424;48.424;11.258;2024-03-23T05:51:11;4.80;;;3.15;;
25525;SDS011;13424;48.424;11.258;2024-03-23T05:53:38;5.22;;;3.13;;
25525;SDS011;13424;48.424;11.258;2024-03-23T05:56:04;6.22;;;3.15;;
25525;SDS011;13424;48.424;11.258;2024-03-23T05:58:31;6.85;;;3.58;;
25525;SDS011;13424;48.424;11.258;2024-03-23T06:00:58;4.38;;;3.72;;
25525;SDS011;13424;48.424;11.258;2024-03-23T06:03:27;4.55;;;3.38;;
25525;SDS011;13424;48.424;11.258;2024-03-23T06:05:54;4.93;;;2.90;;
25525;SDS011;13424;48.424;11.258;2024-03-23T06:08:20;5.88;;;3.22;;
25525;SDS011;13424;48.424;11.258;2024-03-23T06:10:47;3.70;;;2.65;;
25525;SDS011;13424;48.424;11.258;2024-03-23T06:13:13;4.45;;;3.03;;
25525;SDS011;13424;48.424;11.258;2024-03-23T06:15:40;7.00;;;3.75;;
25525;SDS011;13424;48.424;11.258;2024-03-23T06:18:06;3.28;;;2.85;;
25525;SDS011;13424;48.424;11.258;2024-03-23T06:20:33;5.82;;;3.45;;
25525;SDS011;13424;48.424;11.258;2024-03-23T06:23:03;4.00;;;3.30;;
25525;SDS011;13424;48.424;11.258;2024-03-23T06:25:29;3.88;;;3.40;;
25525;SDS011;13424;48.424;11.258;2024-03-23T06:27:55;6.28;;;3.40;;
25525;SDS011;13424;48.424;11.258;2024-03-23T06:30:23;5.93;;;3.58;;
25525;SDS011;13424;48.424;11.258;2024-03-23T06:32:52;4.25;;;3.08;;
25525;SDS011;13424;48.424;11.258;2024-03-23T06:35:18;4.13;;;3.53;;
25525;SDS011;13424;48.424;11.258;2024-03-23T06:37:44;4.20;;;3.15;;
25525;SDS011;13424;48.424;11.258;2024-03-23T06:40:10;4.35;;;3.00;;
25525;SDS011;13424;48.424;11.258;2024-03-23T06:42:36;4.10;;;2.88;;
25525;SDS011;13424;48.424;11.258;2024-03-23T06:45:05;6.05;;;3.38;;
25525;SDS011;13424;48.424;11.258;2024-03-23T06:47:32;3.85;;;2.75;;
25525;SDS011;13424;48.424;11.258;2024-03-23T06:49:59;6.78;;;2.92;;
25525;SDS011;13424;48.424;11.258;2024-03-23T06:52:28;3.53;;;3.20;;
25525;SDS011;13424;48.424;11.258;2024-03-23T06:54:54;5.22;;;3.10;;
25525;SDS011;13424;48.424;11.258;2024-03-23T06:57:21;7.22;;;3.88;;
25525;SDS011;13424;48.424;11.258;2024-03-23T06:59:47;6.38;;;3.45;;
25525;SDS011;13424;48.424;11.258;2024-03-23T07:02:13;4.47;;;3.05;;
25525;SDS011;13424;48.424;11.258;2024-03-23T07:04:40;5.97;;;3.33;;
25525;SDS011;13424;48.424;11.258;2024-03-23T07:07:06;6.93;;;3.47;;
25525;SDS011;13424;48.424;11.258;2024-03-23T07:09:32;5.05;;;3.55;;
25525;SDS011;13424;48.424;11.258;2024-03-23T07:11:58;5.47;;;3.33;;
25525;SDS011;13424;48.424;11.258;2024-03-23T07:14:24;5.82;;;3.13;;
25525;SDS011;13424;48.424;11.258;2024-03-23T07:16:51;4.72;;;3.20;;
25525;SDS011;13424;48.424;11.258;2024-03-23T07:19:17;7.15;;;3.63;;
25525;SDS011;13424;48.424;11.258;2024-03-23T07:21:44;4.68;;;3.63;;
25525;SDS011;13424;48.424;11.258;2024-03-23T07:24:10;5.13;;;3.97;;
25525;SDS011;13424;48.424;11.258;2024-03-23T07:26:37;6.28;;;3.72;;
25525;SDS011;13424;48.424;11.258;2024-03-23T07:29:04;6.03;;;3.95;;
25525;SDS011;13424;48.424;11.258;2024-03-23T07:31:31;5.63;;;3.47;;
25525;SDS011;13424;48.424;11.258;2024-03-23T07:33:57;4.18;;;3.55;;
25525;SDS011;13424;48.424;11.258;2024-03-23T07:36:23;6.32;;;3.75;;
25525;SDS011;13424;48.424;11.258;2024-03-23T07:38:49;7.70;;;4.75;;
25525;SDS011;13424;48.424;11.258;2024-03-23T07:41:17;14.43;;;6.85;;
25525;SDS011;13424;48.424;11.258;2024-03-23T07:43:47;12.73;;;7.95;;
25525;SDS011;13424;48.424;11.258;2024-03-23T07:46:15;14.27;;;8.50;;
25525;SDS011;13424;48.424;11.258;2024-03-23T07:48:41;12.60;;;7.47;;
25525;SDS011;13424;48.424;11.258;2024-03-23T07:51:16;13.38;;;8.27;;
25525;SDS011;13424;48.424;11.258;2024-03-23T07:53:47;11.20;;;8.02;;
25525;SDS011;13424;48.424;11.258;2024-03-23T07:56:17;10.55;;;7.28;;
25525;SDS011;13424;48.424;11.258;2024-03-23T07:58:44;10.82;;;7.80;;
25525;SDS011;13424;48.424;11.258;2024-03-23T08:01:17;11.15;;;6.13;;
25525;SDS011;13424;48.424;11.258;2024-03-23T08:03:44;8.90;;;6.80;;
25525;SDS011;13424;48.424;11.258;2024-03-23T08:06:13;8.80;;;6.65;;
25525;SDS011;13424;48.424;11.258;2024-03-23T08:08:45;8.48;;;6.28;;
25525;SDS011;13424;48.424;11.258;2024-03-23T08:11:14;8.30;;;5.82;;
25525;SDS011;13424;48.424;11.258;2024-03-23T08:13:41;13.05;;;5.55;;
25525;SDS011;13424;48.424;11.258;2024-03-23T08:16:10;8.18;;;5.22;;
25525;SDS011;13424;48.424;11.258;2024-03-23T08:18:36;7.38;;;5.45;;
25525;SDS011;13424;48.424;11.258;2024-03-23T08:21:05;7.93;;;5.63;;
25525;SDS011;13424;48.424;11.258;2024-03-23T08:23:33;9.50;;;5.50;;
25525;SDS011;13424;48.424;11.258;2024-03-23T08:26:07;7.13;;;4.97;;
25525;SDS011;13424;48.424;11.258;2024-03-23T08:28:36;10.60;;;5.15;;
25525;SDS011;13424;48.424;11.258;2024-03-23T08:31:10;8.95;;;5.85;;
25525;SDS011;13424;48.424;11.258;2024-03-23T08:33:38;6.47;;;4.90;;
25525;SDS011;13424;48.424;11.258;2024-03-23T08:36:05;8.73;;;4.97;;
25525;SDS011;13424;48.424;11.258;2024-03-23T08:38:33;7.45;;;5.15;;
25525;SDS011;13424;48.424;11.258;2024-03-23T08:41:01;10.15;;;5.55;;
25525;SDS011;13424;48.424;11.258;2024-03-23T08:43:33;6.57;;;4.63;;
25525;SDS011;13424;48.424;11.258;2024-03-23T08:46:06;7.20;;;4.35;;
25525;SDS011;13424;48.424;11.258;2024-03-23T08:48:43;7.07;;;4.28;;
25525;SDS011;13424;48.424;11.258;2024-03-23T08:51:12;6.80;;;4.65;;
25525;SDS011;13424;48.424;11.258;2024-03-23T08:53:40;5.88;;;4.30;;
25525;SDS011;13424;48.424;11.258;2024-03-23T08:56:07;5.63;;;4.25;;
25525;SDS011;13424;48.424;11.258;2024-03-23T08:58:35;5.20;;;4.15;;
25525;SDS011;13424;48.424;11.258;2024-03-23T09:01:11;6.10;;;3.72;;
25525;SDS011;13424;48.424;11.258;2024-03-23T09:03:38;4.82;;;4.00;;
25525;SDS011;13424;48.424;11.258;2024-03-23T09:06:13;6.75;;;3.88;;
25525;SDS011;13424;48.424;11.258;2024-03-23T09:08:40;4.60;;;4.00;;
25525;SDS011;13424;48.424;11.258;2024-03-23T09:11:07;6.28;;;4.00;;
25525;SDS011;13424;48.424;11.258;2024-03-23T09:13:38;6.65;;;3.85;;
25525;SDS011;13424;48.424;11.258;2024-03-23T09:16:05;4.15;;;3.15;;
25525;SDS011;13424;48.424;11.258;2024-03-23T09:18:33;4.55;;;2.85;;
25525;SDS011;13424;48.424;11.258;2024-03-23T09:21:00;2.70;;;2.50;;
25525;SDS011;13424;48.424;11.258;2024-03-23T09:23:39;3.63;;;2.90;;
25525;SDS011;13424;48.424;11.258;2024-03-23T09:26:05;3.15;;;2.47;;
25525;SDS011;13424;48.424;11.258;2024-03-23T09:28:33;3.75;;;2.63;;
25525;SDS011;13424;48.424;11.258;2024-03-23T09:31:03;3.42;;;2.78;;
25525;SDS011;13424;48.424;11.258;2024-03-23T09:36:04;4.22;;;2.17;;
25525;SDS011;13424;48.424;11.258;2024-03-23T09:38:31;4.97;;;2.20;;
25525;SDS011;13424;48.424;11.258;2024-03-23T09:40:57;2.10;;;1.90;;
25525;SDS011;13424;48.424;11.258;2024-03-23T09:43:24;3.85;;;1.30;;
25525;SDS011;13424;48.424;11.258;2024-03-23T09:45:52;1.60;;;1.50;;
25525;SDS011;13424;48.424;11.258;2024-03-23T09:48:18;1.10;;;0.73;;
25525;SDS011;13424;48.424;11.258;2024-03-23T09:50:45;0.70;;;0.70;;
25525;SDS011;13424;48.424;11.258;2024-03-23T09:53:13;0.77;;;0.77;;
25525;SDS011;13424;48.424;11.258;2024-03-23T09:55:41;1.15;;;0.98;;
25525;SDS011;13424;48.424;11.258;2024-03-23T09:58:12;1.45;;;0.80;;
25525;SDS011;13424;48.424;11.258;2024-03-23T10:00:40;0.70;;;0.70;;
25525;SDS011;13424;48.424;11.258;2024-03-23T10:03:06;2.30;;;0.60;;
25525;SDS011;13424;48.424;11.258;2024-03-23T10:05:33;1.27;;;0.77;;
25525;SDS011;13424;48.424;11.258;2024-03-23T10:13:07;0.82;;;0.80;;
25525;SDS011;13424;48.424;11.258;2024-03-23T10:15:35;0.60;;;0.60;;
25525;SDS011;13424;48.424;11.258;2024-03-23T10:18:20;1.58;;;0.73;;
25525;SDS011;13424;48.424;11.258;2024-03-23T10:20:52;0.50;;;0.50;;
25525;SDS011;13424;48.424;11.258;2024-03-23T10:23:39;0.47;;;0.47;;
25525;SDS011;13424;48.424;11.258;2024-03-23T10:26:24;0.93;;;0.70;;
25525;SDS011;13424;48.424;11.258;2024-03-23T10:28:58;0.50;;;0.50;;
25525;SDS011;13424;48.424;11.258;2024-03-23T10:31:36;0.68;;;0.52;;
25525;SDS011;13424;48.424;11.258;2024-03-23T10:34:03;2.25;;;0.98;;
25525;SDS011;13424;48.424;11.258;2024-03-23T10:36:30;0.60;;;0.60;;
25525;SDS011;13424;48.424;11.258;2024-03-23T10:38:56;0.85;;;0.85;;
25525;SDS011;13424;48.424;11.258;2024-03-23T10:41:27;0.90;;;0.90;;
25525;SDS011;13424;48.424;11.258;2024-03-23T10:43:57;0.90;;;0.90;;
25525;SDS011;13424;48.424;11.258;2024-03-23T10:46:26;0.85;;;0.80;;
25525;SDS011;13424;48.424;11.258;2024-03-23T10:48:53;1.20;;;0.82;;
25525;SDS011;13424;48.424;11.258;2024-03-23T10:51:21;1.30;;;0.93;;
25525;SDS011;13424;48.424;11.258;2024-03-23T10:53:47;1.20;;;1.10;;
25525;SDS011;13424;48.424;11.258;2024-03-23T10:56:13;2.40;;;1.20;;
25525;SDS011;13424;48.424;11.258;2024-03-23T10:58:44;1.88;;;0.80;;
25525;SDS011;13424;48.424;11.258;2024-03-23T11:01:13;0.90;;;0.90;;
25525;SDS011;13424;48.424;11.258;2024-03-23T11:03:47;2.30;;;1.65;;
25525;SDS011;13424;48.424;11.258;2024-03-23T11:06:38;1.92;;;1.17;;
25525;SDS011;13424;48.424;11.258;2024-03-23T11:15:04;2.30;;;1.67;;
25525;SDS011;13424;48.424;11.258;2024-03-23T11:17:39;1.33;;;1.23;;
25525;SDS011;13424;48.424;11.258;2024-03-23T11:20:06;5.20;;;1.38;;
25525;SDS011;13424;48.424;11.258;2024-03-23T11:25:21;2.03;;;1.90;;
25525;SDS011;13424;48.424;11.258;2024-03-23T11:28:09;3.72;;;2.00;;
25525;SDS011;13424;48.424;11.258;2024-03-23T11:30:37;2.05;;;1.60;;
25525;SDS011;13424;48.424;11.258;2024-03-23T11:33:04;5.15;;;2.00;;
25525;SDS011;13424;48.424;11.258;2024-03-23T11:35:38;4.53;;;2.22;;
25525;SDS011;13424;48.424;11.258;2024-03-23T11:38:16;3.10;;;2.42;;
25525;SDS011;13424;48.424;11.258;2024-03-23T11:40:48;3.92;;;2.63;;
25525;SDS011;13424;48.424;11.258;2024-03-23T11:45:45;6.82;;;2.50;;
25525;SDS011;13424;48.424;11.258;2024-03-23T11:48:21;4.88;;;2.33;;
25525;SDS011;13424;48.424;11.258;2024-03-23T11:50:50;3.35;;;2.58;;
25525;SDS011;13424;48.424;11.258;2024-03-23T11:53:24;4.63;;;2.38;;
25525;SDS011;13424;48.424;11.258;2024-03-23T11:55:55;3.90;;;2.30;;
25525;SDS011;13424;48.424;11.258;2024-03-23T11:58:29;4.00;;;2.20;;
25525;SDS011;13424;48.424;11.258;2024-03-23T12:00:59;3.33;;;2.47;;
25525;SDS011;13424;48.424;11.258;2024-03-23T12:03:30;4.90;;;2.70;;
25525;SDS011;13424;48.424;11.258;2024-03-23T12:06:02;5.53;;;2.50;;
25525;SDS011;13424;48.424;11.258;2024-03-23T12:08:31;4.65;;;2.65;;
25525;SDS011;13424;48.424;11.258;2024-03-23T12:11:05;2.85;;;2.17;;
25525;SDS011;13424;48.424;11.258;2024-03-23T12:13:40;3.90;;;2.60;;
25525;SDS011;13424;48.424;11.258;2024-03-23T12:16:16;6.03;;;3.50;;
25525;SDS011;13424;48.424;11.258;2024-03-23T12:18:49;3.42;;;2.72;;
25525;SDS011;13424;48.424;11.258;2024-03-23T12:21:20;8.55;;;3.05;;
25525;SDS011;13424;48.424;11.258;2024-03-23T12:23:48;5.80;;;2.70;;
25525;SDS011;13424;48.424;11.258;2024-03-23T12:26:15;5.93;;;3.08;;
25525;SDS011;13424;48.424;11.258;2024-03-23T12:28:43;5.97;;;3.20;;
25525;SDS011;13424;48.424;11.258;2024-03-23T12:31:09;10.43;;;3.90;;
25525;SDS011;13424;48.424;11.258;2024-03-23T12:33:36;7.75;;;2.67;;
25525;SDS011;13424;48.424;11.258;2024-03-23T12:36:02;5.53;;;3.38;;
25525;SDS011;13424;48.424;11.258;2024-03-23T12:38:29;4.18;;;3.25;;
25525;SDS011;13424;48.424;11.258;2024-03-23T12:40:55;6.75;;;3.40;;
25525;SDS011;13424;48.424;11.258;2024-03-23T12:43:25;9.45;;;3.95;;
25525;SDS011;13424;48.424;11.258;2024-03-23T12:45:51;9.57;;;3.72;;
25525;SDS011;13424;48.424;11.258;2024-03-23T12:48:20;6.82;;;3.45;;
25525;SDS011;13424;48.424;11.258;2024-03-23T12:50:46;7.18;;;3.40;;
25525;SDS011;13424;48.424;11.258;2024-03-23T12:53:12;9.55;;;3.95;;
25525;SDS011;13424;48.424;11.258;2024-03-23T12:55:38;5.57;;;3.88;;
25525;SDS011;13424;48.424;11.258;2024-03-23T12:58:04;7.00;;;3.55;;
25525;SDS011;13424;48.424;11.258;2024-03-23T13:00:30;6.75;;;3.50;;
25525;SDS011;13424;48.424;11.258;2024-03-23T13:02:56;5.85;;;3.13;;
25525;SDS011;13424;48.424;11.258;2024-03-23T13:05:22;9.57;;;4.68;;
25525;SDS011;13424;48.424;11.258;2024-03-23T13:07:48;6.15;;;3.47;;
25525;SDS011;13424;48.424;11.258;2024-03-23T13:10:14;7.70;;;3.58;;
25525;SDS011;13424;48.424;11.258;2024-03-23T13:12:41;6.80;;;3.53;;
25525;SDS011;13424;48.424;11.258;2024-03-23T13:15:08;7.32;;;3.65;;
25525;SDS011;13424;48.424;11.258;2024-03-23T13:17:34;9.65;;;5.03;;
25525;SDS011;13424;48.424;11.258;2024-03-23T13:20:00;6.45;;;3.63;;
25525;SDS011;13424;48.424;11.258;2024-03-23T13:22:26;9.18;;;4.25;;
25525;SDS011;13424;48.424;11.258;2024-03-23T13:24:52;7.50;;;4.05;;
25525;SDS011;13424;48.424;11.258;2024-03-23T13:27:21;7.35;;;3.97;;
25525;SDS011;13424;48.424;11.258;2024-03-23T13:29:47;9.00;;;4.57;;
25525;SDS011;13424;48.424;11.258;2024-03-23T13:32:13;8.23;;;4.75;;
25525;SDS011;13424;48.424;11.258;2024-03-23T13:34:39;9.25;;;4.68;;
25525;SDS011;13424;48.424;11.258;2024-03-23T13:37:05;6.95;;;4.47;;
25525;SDS011;13424;48.424;11.258;2024-03-23T13:39:35;11.13;;;4.82;;
25525;SDS011;13424;48.424;11.258;2024-03-23T13:42:01;15.60;;;4.55;;
25525;SDS011;13424;48.424;11.258;2024-03-23T13:44:26;5.75;;;3.60;;
25525;SDS011;13424;48.424;11.258;2024-03-23T13:46:52;5.43;;;3.63;;
25525;SDS011;13424;48.424;11.258;2024-03-23T13:49:27;6.47;;;3.22;;
25525;SDS011;13424;48.424;11.258;2024-03-23T13:51:55;4.78;;;3.13;;
25525;SDS011;13424;48.424;11.258;2024-03-23T13:54:23;5.88;;;2.80;;
25525;SDS011;13424;48.424;11.258;2024-03-23T13:56:51;3.75;;;2.55;;
25525;SDS011;13424;48.424;11.258;2024-03-23T13:59:17;4.30;;;2.55;;
25525;SDS011;13424;48.424;11.258;2024-03-23T14:01:44;3.33;;;2.30;;
25525;SDS011;13424;48.424;11.258;2024-03-23T14:04:13;4.82;;;2.58;;
25525;SDS011;13424;48.424;11.258;2024-03-23T14:06:43;4.35;;;2.42;;
25525;SDS011;13424;48.424;11.258;2024-03-23T14:09:15;6.30;;;2.20;;
25525;SDS011;13424;48.424;11.258;2024-03-23T14:11:46;2.35;;;1.85;;
25525;SDS011;13424;48.424;11.258;2024-03-23T14:14:12;4.07;;;2.08;;
25525;SDS011;13424;48.424;11.258;2024-03-23T14:16:38;4.32;;;2.22;;
25525;SDS011;13424;48.424;11.258;2024-03-23T14:19:04;3.80;;;2.38;;
25525;SDS011;13424;48.424;11.258;2024-03-23T14:21:31;2.88;;;2.38;;
25525;SDS011;13424;48.424;11.258;2024-03-23T14:23:57;2.85;;;1.90;;
25525;SDS011;13424;48.424;11.258;2024-03-23T14:26:23;2.35;;;1.85;;
25525;SDS011;13424;48.424;11.258;2024-03-23T14:28:49;3.85;;;2.30;;
25525;SDS011;13424;48.424;11.258;2024-03-23T14:31:15;5.50;;;2.15;;
25525;SDS011;13424;48.424;11.258;2024-03-23T14:33:42;10.15;;;2.67;;
25525;SDS011;13424;48.424;11.258;2024-03-23T14:36:15;7.25;;;2.13;;
25525;SDS011;13424;48.424;11.258;2024-03-23T14:38:46;5.40;;;2.63;;
25525;SDS011;13424;48.424;11.258;2024-03-23T14:43:39;6.22;;;2.67;;
25525;SDS011;13424;48.424;11.258;2024-03-23T14:46:06;3.28;;;2.17;;
25525;SDS011;13424;48.424;11.258;2024-03-23T14:48:42;3.65;;;2.58;;
25525;SDS011;13424;48.424;11.258;2024-03-23T14:51:10;5.50;;;2.25;;
25525;SDS011;13424;48.424;11.258;2024-03-23T14:53:38;7.60;;;2.63;;
25525;SDS011;13424;48.424;11.258;2024-03-23T14:56:08;9.15;;;2.85;;
25525;SDS011;13424;48.424;11.258;2024-03-23T14:58:40;5.82;;;2.20;;
25525;SDS011;13424;48.424;11.258;2024-03-23T15:01:08;7.60;;;2.55;;
25525;SDS011;13424;48.424;11.258;2024-03-23T15:03:35;8.20;;;2.78;;
25525;SDS011;13424;48.424;11.258;2024-03-23T15:06:05;6.43;;;2.45;;
25525;SDS011;13424;48.424;11.258;2024-03-23T15:08:32;5.20;;;2.55;;
25525;SDS011;13424;48.424;11.258;2024-03-23T15:11:01;3.30;;;2.40;;
25525;SDS011;13424;48.424;11.258;2024-03-23T15:13:37;4.57;;;2.30;;
25525;SDS011;13424;48.424;11.258;2024-03-23T15:16:04;5.72;;;2.40;;
25525;SDS011;13424;48.424;11.258;2024-03-23T15:18:34;6.00;;;2.83;;
25525;SDS011;13424;48.424;11.258;2024-03-23T15:21:02;3.38;;;2.22;;
25525;SDS011;13424;48.424;11.258;2024-03-23T15:23:33;8.50;;;2.95;;
25525;SDS011;13424;48.424;11.258;2024-03-23T15:26:00;6.43;;;2.92;;
25525;SDS011;13424;48.424;11.258;2024-03-23T15:28:28;7.35;;;2.47;;
25525;SDS011;13424;48.424;11.258;2024-03-23T15:31:06;3.83;;;2.22;;
25525;SDS011;13424;48.424;11.258;2024-03-23T15:33:36;5.00;;;1.77;;
25525;SDS011;13424;48.424;11.258;2024-03-23T15:36:05;5.70;;;2.13;;
25525;SDS011;13424;48.424;11.258;2024-03-23T15:38:32;16.42;;;6.13;;
25525;SDS011;13424;48.424;11.258;2024-03-23T15:40:58;7.65;;;2.70;;
25525;SDS011;13424;48.424;11.258;2024-03-23T15:43:28;3.80;;;2.42;;
25525;SDS011;13424;48.424;11.258;2024-03-23T15:46:03;8.60;;;3.00;;
25525;SDS011;13424;48.424;11.258;2024-03-23T15:48:32;6.45;;;2.63;;
25525;SDS011;13424;48.424;11.258;2024-03-23T15:51:03;8.85;;;2.65;;